Time;durP1;ratioP1;P1;durP2;ratioP2;P2;SDS_P1;SDS_P2;PMS_P1;PMS_P2;Temp;Humidity;BMP_temperature;BMP_pressure;BME280_temperature;BME280_humidity;BME280_pressure;Samples;Min_cycle;Max_cycle;Signal;HPM_P1;HPM_P2
2021/04/23 00:00:41;;;;;;;13.23;3.42;;;;;;;6.80;57.08;101371.63;5011130;28;20034;-78
2021/04/23 00:03:40;;;;;;;8.15;2.55;;;;;;;6.74;57.05;101371.47;5010216;28;20030;-78
2021/04/23 00:06:12;;;;;;;9.10;2.58;;;;;;;6.76;57.09;101368.91;5011452;28;20530;-78
2021/04/23 00:08:39;;;;;;;12.75;3.40;;;;;;;6.62;57.62;101357.19;5010091;28;20057;-78
2021/04/23 00:11:06;;;;;;;8.65;3.10;;;;;;;6.63;57.34;101366.81;5012845;28;20034;-78
2021/04/23 00:13:33;;;;;;;10.10;3.05;;;;;;;6.57;57.74;101376.31;5008649;28;20034;-78
2021/04/23 00:15:59;;;;;;;8.65;3.08;;;;;;;6.51;57.81;101368.31;5008923;28;20113;-78
2021/04/23 00:18:24;;;;;;;6.43;2.63;;;;;;;6.41;58.29;101366.31;5015932;28;20038;-79
2021/04/23 00:20:50;;;;;;;8.10;3.10;;;;;;;6.35;58.42;101371.44;5011433;28;20045;-78
2021/04/23 00:23:16;;;;;;;9.93;3.25;;;;;;;6.27;58.21;101375.59;5012881;28;20421;-79
2021/04/23 00:25:42;;;;;;;13.65;3.20;;;;;;;6.22;58.43;101367.63;5012266;28;20072;-78
2021/04/23 00:28:10;;;;;;;9.18;3.85;;;;;;;6.21;58.63;101362.31;5015211;28;20117;-78
2021/04/23 00:30:39;;;;;;;6.72;3.22;;;;;;;6.15;58.51;101374.41;5014845;28;20038;-79
2021/04/23 00:33:05;;;;;;;11.18;3.58;;;;;;;6.10;59.20;101360.34;5011660;28;20046;-79
2021/04/23 00:35:33;;;;;;;13.50;3.97;;;;;;;6.12;58.66;101361.25;5015606;28;20094;-79
2021/04/23 00:38:00;;;;;;;11.18;3.40;;;;;;;6.06;59.29;101373.31;5011922;28;20049;-79
2021/04/23 00:40:29;;;;;;;8.77;3.70;;;;;;;5.97;58.98;101376.56;5014353;28;20479;-78
2021/04/23 00:42:54;;;;;;;12.25;3.67;;;;;;;5.94;59.46;101366.00;5010478;28;20046;-78
2021/04/23 00:45:23;;;;;;;9.82;3.85;;;;;;;5.84;59.59;101374.44;5012306;28;20052;-78
2021/04/23 00:47:51;;;;;;;7.40;3.75;;;;;;;5.82;60.14;101376.16;5007814;28;20570;-78
2021/04/23 00:50:28;;;;;;;9.45;3.60;;;;;;;5.74;59.79;101373.34;5013038;28;20057;-78
2021/04/23 00:52:54;;;;;;;10.10;3.95;;;;;;;5.63;60.67;101370.44;5026533;28;20042;-78
2021/04/23 00:55:20;;;;;;;9.38;3.35;;;;;;;5.56;60.73;101376.34;5014343;28;20109;-79
2021/04/23 00:57:45;;;;;;;10.25;4.25;;;;;;;5.47;61.19;101379.56;5011037;28;20626;-77
2021/04/23 01:00:12;;;;;;;11.45;3.83;;;;;;;5.39;61.24;101370.59;5011534;28;20103;-78
2021/04/23 01:02:37;;;;;;;10.07;3.75;;;;;;;5.41;61.12;101381.13;5009350;28;20026;-78
2021/04/23 01:05:03;;;;;;;8.05;3.85;;;;;;;5.26;61.54;101382.44;5012805;28;20240;-78
2021/04/23 01:07:28;;;;;;;11.38;3.45;;;;;;;5.18;61.80;101378.72;5012449;28;20042;-79
2021/04/23 01:09:54;;;;;;;11.13;3.70;;;;;;;5.13;62.33;101380.31;5011978;28;20069;-79
2021/04/23 01:12:19;;;;;;;7.55;3.58;;;;;;;5.16;62.44;101380.44;5024417;28;20535;-79
2021/04/23 01:14:44;;;;;;;8.55;4.05;;;;;;;5.20;62.07;101384.91;5012807;28;20030;-78
2021/04/23 01:17:10;;;;;;;10.80;3.47;;;;;;;5.15;62.23;101386.50;5009661;28;20030;-78
2021/04/23 01:19:35;;;;;;;9.85;4.22;;;;;;;5.17;62.47;101390.03;5008519;28;20479;-78
2021/04/23 01:22:01;;;;;;;7.03;3.33;;;;;;;5.10;62.39;101380.22;5011690;28;20101;-78
2021/04/23 01:24:27;;;;;;;17.45;4.35;;;;;;;5.03;62.48;101384.41;5009607;28;20042;-79
2021/04/23 01:26:55;;;;;;;10.38;3.85;;;;;;;4.98;63.03;101391.25;5012242;28;20042;-77
2021/04/23 01:29:22;;;;;;;9.27;4.00;;;;;;;4.90;62.94;101387.50;5008754;28;20049;-78
2021/04/23 01:31:54;;;;;;;10.98;4.13;;;;;;;4.82;63.73;101384.66;5010127;28;20468;-78
2021/04/23 01:34:29;;;;;;;11.95;4.38;;;;;;;4.73;63.49;101389.56;5013365;28;20033;-79
2021/04/23 01:36:54;;;;;;;11.80;4.32;;;;;;;4.61;63.89;101389.19;5026570;28;20057;-78
2021/04/23 01:39:23;;;;;;;15.98;5.03;;;;;;;4.51;63.90;101393.25;4996704;28;20038;-79
2021/04/23 01:41:51;;;;;;;13.00;4.57;;;;;;;4.41;64.34;101392.91;5012152;28;20042;-78
2021/04/23 01:44:17;;;;;;;12.00;4.30;;;;;;;4.34;65.02;101386.56;5011633;28;20502;-78
2021/04/23 01:46:42;;;;;;;8.13;4.20;;;;;;;4.23;65.20;101391.44;5027672;28;20432;-78
2021/04/23 01:49:12;;;;;;;9.82;5.00;;;;;;;4.21;65.73;101397.47;5011954;28;20161;-78
2021/04/23 01:51:40;;;;;;;9.32;4.68;;;;;;;4.13;65.42;101399.81;5016399;28;20036;-79
2021/04/23 01:54:08;;;;;;;10.18;4.35;;;;;;;4.08;65.65;101401.38;5015813;28;20054;-78
2021/04/23 01:56:34;;;;;;;14.23;5.18;;;;;;;4.07;66.24;101394.38;5015835;28;20034;-78
2021/04/23 01:59:00;;;;;;;6.88;4.10;;;;;;;4.08;66.00;101399.66;5027139;28;20379;-79
2021/04/23 02:01:25;;;;;;;9.30;4.72;;;;;;;4.12;65.99;101400.66;5019346;28;20391;-78
2021/04/23 02:03:51;;;;;;;13.27;4.90;;;;;;;4.17;66.13;101409.53;5016803;28;20072;-78
2021/04/23 02:06:16;;;;;;;10.70;4.80;;;;;;;4.29;65.77;101409.94;5013465;28;20042;-78
2021/04/23 02:08:42;;;;;;;9.63;4.60;;;;;;;4.44;65.10;101409.56;5010621;28;20037;-78
2021/04/23 02:11:15;;;;;;;14.55;4.63;;;;;;;4.48;65.31;101410.53;5009092;28;20049;-77
2021/04/23 02:13:42;;;;;;;14.30;5.50;;;;;;;4.55;64.97;101404.69;5006666;28;20041;-78
2021/04/23 02:16:09;;;;;;;11.82;5.20;;;;;;;4.66;64.89;101418.09;5006739;28;20034;-78
2021/04/23 02:18:35;;;;;;;10.23;4.57;;;;;;;4.58;64.66;101408.31;5009787;28;20050;-77
2021/04/23 02:21:01;;;;;;;13.23;4.97;;;;;;;4.65;64.58;101401.53;5008202;28;20039;-78
2021/04/23 02:23:26;;;;;;;13.85;5.38;;;;;;;4.68;64.40;101406.84;5010743;28;20501;-78
2021/04/23 02:25:53;;;;;;;10.13;4.88;;;;;;;4.75;64.63;101406.22;5008577;28;20034;-78
2021/04/23 02:28:19;;;;;;;13.98;5.47;;;;;;;4.75;64.54;101406.22;5009443;28;20026;-78
2021/04/23 02:30:49;;;;;;;12.27;5.70;;;;;;;4.76;64.26;101405.34;5010874;28;20034;-78
2021/04/23 02:33:17;;;;;;;13.88;5.70;;;;;;;4.88;63.50;101414.44;5009415;28;20038;-78
2021/04/23 02:35:43;;;;;;;15.65;6.18;;;;;;;4.86;63.67;101410.91;5015606;28;20022;-78
2021/04/23 02:38:09;;;;;;;14.50;5.20;;;;;;;4.85;63.68;101410.00;5013249;28;20038;-78
2021/04/23 02:40:35;;;;;;;13.27;5.10;;;;;;;4.88;63.20;101414.44;5005048;28;20037;-78
2021/04/23 02:43:08;;;;;;;15.00;6.07;;;;;;;4.79;63.82;101423.78;5007552;28;20125;-78
2021/04/23 02:45:35;;;;;;;10.43;4.90;;;;;;;4.79;64.11;101410.72;5010970;28;20125;-78
2021/04/23 02:48:02;;;;;;;13.98;5.43;;;;;;;4.82;63.99;101415.13;5008888;28;20509;-78
2021/04/23 02:50:29;;;;;;;12.85;5.97;;;;;;;4.77;64.09;101415.00;5012434;28;20052;-77
2021/04/23 02:52:55;;;;;;;15.23;5.57;;;;;;;4.83;64.58;101422.16;5008262;28;20077;-77
2021/04/23 02:55:21;;;;;;;17.23;6.38;;;;;;;4.98;63.59;101416.50;5010616;28;20026;-78
2021/04/23 02:58:17;;;;;;;16.90;6.20;;;;;;;4.93;64.16;101423.34;5008288;28;20096;-78
2021/04/23 03:00:46;;;;;;;14.38;6.25;;;;;;;5.01;64.11;101429.69;5014942;28;20042;-78
2021/04/23 03:03:12;;;;;;;11.93;5.40;;;;;;;4.96;64.38;101426.91;5010588;28;20549;-78
2021/04/23 03:05:40;;;;;;;12.23;5.90;;;;;;;4.99;64.21;101423.50;5013447;28;20034;-79
2021/04/23 03:08:06;;;;;;;14.68;6.25;;;;;;;5.05;64.27;101424.56;5012718;28;20053;-78
2021/04/23 03:10:36;;;;;;;16.17;6.20;;;;;;;4.99;64.26;101427.00;5012289;28;20041;-77
2021/04/23 03:13:08;;;;;;;10.68;6.00;;;;;;;5.01;64.41;101430.56;5006866;28;20034;-78
2021/04/23 03:15:34;;;;;;;15.32;6.63;;;;;;;5.09;64.12;101429.91;5006682;28;20089;-78
2021/04/23 03:18:00;;;;;;;17.17;6.55;;;;;;;5.03;64.82;101431.50;5011361;28;20034;-78
2021/04/23 03:20:27;;;;;;;15.70;6.28;;;;;;;5.08;64.56;101429.00;5008927;28;20513;-78
2021/04/23 03:22:54;;;;;;;12.55;5.82;;;;;;;5.03;64.54;101439.34;5009746;28;20045;-77
2021/04/23 03:25:20;;;;;;;13.00;6.97;;;;;;;5.00;64.98;101430.50;5015799;28;20036;-78
2021/04/23 03:27:46;;;;;;;14.10;6.80;;;;;;;5.12;64.77;101441.34;5014758;28;20113;-78
2021/04/23 03:30:18;;;;;;;15.82;6.40;;;;;;;5.04;65.32;101442.84;5021092;28;20086;-78
2021/04/23 03:32:43;;;;;;;17.30;6.47;;;;;;;5.01;65.52;101440.16;5018859;28;20029;-78
2021/04/23 03:35:11;;;;;;;14.40;7.03;;;;;;;5.04;65.92;101448.97;5012373;28;20061;-78
2021/04/23 03:37:38;;;;;;;15.15;6.95;;;;;;;5.02;65.44;101452.38;5009175;28;20038;-78
2021/04/23 03:40:05;;;;;;;15.80;7.15;;;;;;;4.97;65.86;101448.72;5007511;28;20485;-77
2021/04/23 03:42:30;;;;;;;13.80;6.72;;;;;;;5.00;65.92;101451.44;5007131;28;20034;-77
2021/04/23 03:44:56;;;;;;;17.95;7.22;;;;;;;4.98;66.29;101474.94;4989891;28;20049;-78
2021/04/23 03:47:21;;;;;;;14.48;7.25;;;;;;;4.93;66.42;101454.72;5007099;28;20042;-79
2021/04/23 03:49:47;;;;;;;15.40;6.70;;;;;;;4.97;66.32;101473.16;5017006;28;20032;-78
2021/04/23 03:52:12;;;;;;;17.00;7.45;;;;;;;4.92;66.85;101448.56;5014827;28;20524;-78
2021/04/23 03:54:38;;;;;;;14.63;7.10;;;;;;;4.97;66.22;101456.56;5015489;28;20108;-78
2021/04/23 03:57:04;;;;;;;15.50;7.72;;;;;;;4.91;67.09;101472.09;5008521;28;20053;-78
2021/04/23 03:59:31;;;;;;;16.00;8.00;;;;;;;4.96;66.87;101476.63;5012940;28;20030;-78
2021/04/23 04:01:56;;;;;;;14.55;7.03;;;;;;;5.03;66.58;101482.91;5007878;28;20073;-78
2021/04/23 04:04:21;;;;;;;16.63;7.68;;;;;;;4.97;66.48;101475.78;5016058;28;20042;-77
2021/04/23 04:06:47;;;;;;;14.98;6.45;;;;;;;5.02;66.66;101470.69;5010931;28;20030;-79
2021/04/23 04:09:13;;;;;;;12.73;7.38;;;;;;;5.09;66.72;101482.25;5012045;28;20030;-78
2021/04/23 04:11:39;;;;;;;16.50;7.80;;;;;;;5.04;66.66;101484.72;5010417;28;20085;-78
2021/04/23 04:14:04;;;;;;;18.17;6.60;;;;;;;5.04;66.89;101477.75;5009900;28;20030;-78
2021/04/23 04:16:29;;;;;;;17.60;7.25;;;;;;;5.03;66.12;101488.16;5010102;28;20064;-79
2021/04/23 04:18:55;;;;;;;13.80;6.97;;;;;;;5.05;66.69;101489.97;5009287;28;20065;-78
2021/04/23 04:21:20;;;;;;;15.40;7.63;;;;;;;5.08;66.65;101486.56;5008571;28;20044;-78
2021/04/23 04:23:45;;;;;;;15.73;6.93;;;;;;;5.10;66.69;101492.75;5009534;28;20041;-77
2021/04/23 04:26:11;;;;;;;25.08;7.43;;;;;;;5.20;66.42;101492.19;5010723;28;20053;-78
2021/04/23 04:28:36;;;;;;;13.63;6.50;;;;;;;5.18;66.54;101499.09;5013107;28;20120;-78
2021/04/23 04:31:02;;;;;;;15.00;7.47;;;;;;;5.14;66.41;101509.47;5007564;28;20060;-78
2021/04/23 04:33:27;;;;;;;18.48;7.63;;;;;;;5.15;66.63;101500.75;5007123;28;20044;-78
2021/04/23 04:35:53;;;;;;;15.55;7.53;;;;;;;5.21;65.97;101512.31;4988250;28;20040;-77
2021/04/23 04:38:18;;;;;;;13.52;7.30;;;;;;;5.21;66.79;101501.84;5020399;28;20033;-77
2021/04/23 04:40:45;;;;;;;15.65;6.65;;;;;;;5.19;66.41;101508.75;5027442;28;20064;-77
2021/04/23 04:43:14;;;;;;;14.48;6.60;;;;;;;5.24;66.41;101499.31;5020643;28;20034;-77
2021/04/23 04:45:41;;;;;;;14.23;6.50;;;;;;;5.20;66.58;101513.13;5006946;28;20041;-78
2021/04/23 04:48:07;;;;;;;11.48;6.70;;;;;;;5.23;66.59;101515.84;5016920;28;20042;-76
2021/04/23 04:50:35;;;;;;;14.93;6.82;;;;;;;5.24;66.51;101504.56;5005270;28;20048;-78
2021/04/23 04:53:04;;;;;;;17.30;7.32;;;;;;;5.24;66.91;101512.41;5003178;28;20061;-77
2021/04/23 04:55:33;;;;;;;14.52;7.13;;;;;;;5.25;66.32;101532.50;5004380;28;20053;-77
2021/04/23 04:58:00;;;;;;;15.88;7.20;;;;;;;5.24;66.30;101512.41;5005929;28;20050;-77
2021/04/23 05:00:28;;;;;;;15.20;6.55;;;;;;;5.24;66.65;101520.25;5010885;28;20097;-78
2021/04/23 05:02:55;;;;;;;15.75;7.57;;;;;;;5.24;66.04;101525.50;5006498;28;20120;-77
2021/04/23 05:05:21;;;;;;;16.17;7.03;;;;;;;5.30;66.04;101523.91;5018246;28;20046;-77
2021/04/23 05:07:47;;;;;;;15.45;6.82;;;;;;;5.33;66.07;101531.84;5005092;28;20030;-77
2021/04/23 05:10:13;;;;;;;15.65;7.15;;;;;;;5.44;65.26;101527.81;5010385;28;20050;-78
2021/04/23 05:12:39;;;;;;;15.13;7.03;;;;;;;5.45;65.85;101530.50;5007511;28;20049;-78
2021/04/23 05:15:06;;;;;;;15.85;7.57;;;;;;;5.51;65.61;101542.00;5004667;28;20042;-78
2021/04/23 05:17:32;;;;;;;18.85;7.07;;;;;;;5.51;65.86;101537.66;5007291;28;20045;-77
2021/04/23 05:19:57;;;;;;;16.25;7.03;;;;;;;5.63;65.09;101535.41;5005401;28;20046;-77
2021/04/23 05:22:22;;;;;;;14.25;7.05;;;;;;;5.63;65.01;101537.13;5007783;28;20119;-78
2021/04/23 05:24:48;;;;;;;13.45;6.78;;;;;;;5.71;64.13;101539.16;5006488;28;20398;-77
2021/04/23 05:27:13;;;;;;;12.63;7.22;;;;;;;5.69;64.67;101534.72;5014325;28;20436;-78
2021/04/23 05:29:38;;;;;;;17.00;6.72;;;;;;;5.78;63.91;101549.81;5015762;28;20241;-78
2021/04/23 05:32:05;;;;;;;14.57;7.05;;;;;;;5.80;64.26;101542.88;5025571;28;20041;-78
2021/04/23 05:34:30;;;;;;;14.65;7.38;;;;;;;5.85;64.23;101543.91;5017020;28;20099;-78
2021/04/23 05:36:56;;;;;;;13.68;7.22;;;;;;;5.97;63.93;101552.13;5002587;28;20489;-76
2021/04/23 05:39:22;;;;;;;17.60;7.38;;;;;;;5.95;63.27;101553.84;5016811;28;20092;-78
2021/04/23 05:41:47;;;;;;;15.32;7.00;;;;;;;5.99;63.32;101554.81;5014205;28;20026;-78
2021/04/23 05:44:12;;;;;;;13.77;6.97;;;;;;;6.01;63.16;101554.00;5012710;28;20045;-78
2021/04/23 05:46:38;;;;;;;13.32;7.05;;;;;;;6.04;63.65;101554.09;4996624;28;20124;-77
2021/04/23 05:49:04;;;;;;;15.20;7.43;;;;;;;6.09;62.98;101549.00;5017728;28;20046;-78
2021/04/23 05:51:30;;;;;;;12.10;7.13;;;;;;;6.06;63.31;101557.66;5014706;28;20077;-77
2021/04/23 05:53:55;;;;;;;17.52;7.65;;;;;;;6.12;62.51;101551.69;5010163;28;20526;-78
2021/04/23 05:56:20;;;;;;;15.90;7.63;;;;;;;6.09;62.79;101568.22;5009514;28;20050;-77
2021/04/23 05:58:46;;;;;;;17.05;7.72;;;;;;;6.19;62.61;101563.25;5015952;28;20036;-77
2021/04/23 06:01:11;;;;;;;18.65;7.20;;;;;;;6.15;63.13;101557.00;5010768;28;20106;-78
2021/04/23 06:03:36;;;;;;;15.88;7.47;;;;;;;6.12;63.18;101560.44;5012139;28;20080;-78
2021/04/23 06:06:02;;;;;;;16.05;7.15;;;;;;;6.25;62.94;101560.78;5011437;28;20038;-78
2021/04/23 06:08:27;;;;;;;13.05;6.90;;;;;;;6.28;62.35;101558.25;5013137;28;20038;-78
2021/04/23 06:10:52;;;;;;;13.27;7.93;;;;;;;6.27;63.11;101544.25;5023443;28;20053;-78
2021/04/23 06:13:18;;;;;;;16.80;7.25;;;;;;;6.24;62.63;101573.03;5010836;28;20054;-78
2021/04/23 06:15:44;;;;;;;14.45;6.63;;;;;;;6.24;63.01;101541.56;5011327;28;20133;-78
2021/04/23 06:18:11;;;;;;;15.68;6.90;;;;;;;6.34;62.50;101553.16;5010757;28;20061;-77
2021/04/23 06:20:37;;;;;;;16.30;7.20;;;;;;;6.43;62.80;101563.91;5010599;28;20096;-78
2021/04/23 06:23:05;;;;;;;13.68;7.30;;;;;;;6.53;61.41;101560.69;5011533;28;20089;-77
2021/04/23 06:25:30;;;;;;;18.00;7.60;;;;;;;6.50;62.24;101560.63;5008510;28;20080;-78
2021/04/23 06:27:56;;;;;;;16.83;7.22;;;;;;;6.46;61.81;101553.50;5008522;28;20042;-78
2021/04/23 06:30:28;;;;;;;15.73;7.82;;;;;;;6.41;61.52;101565.59;5024842;28;20034;-78
2021/04/23 06:32:55;;;;;;;16.17;7.35;;;;;;;6.51;61.42;101562.38;5011643;28;20128;-77
2021/04/23 06:35:23;;;;;;;17.90;7.63;;;;;;;6.48;61.32;101588.53;5011359;28;20108;-78
2021/04/23 06:37:48;;;;;;;13.32;6.50;;;;;;;6.37;61.86;101592.59;5008229;28;20482;-78
2021/04/23 06:40:16;;;;;;;14.88;6.88;;;;;;;6.44;61.56;101567.44;5011484;28;20137;-77
2021/04/23 06:42:42;;;;;;;14.05;8.10;;;;;;;6.50;61.79;101571.13;5009678;28;20057;-78
2021/04/23 06:45:12;;;;;;;16.65;6.60;;;;;;;6.60;61.20;101569.59;5012651;28;20494;-77
2021/04/23 06:47:37;;;;;;;12.88;6.82;;;;;;;6.69;61.40;101587.34;5009234;28;20077;-79
2021/04/23 06:50:05;;;;;;;15.25;7.45;;;;;;;6.66;60.84;101587.28;5011979;28;20034;-78
2021/04/23 06:52:31;;;;;;;15.43;6.88;;;;;;;6.64;61.02;101573.22;5009636;28;20125;-78
2021/04/23 06:54:57;;;;;;;13.07;6.70;;;;;;;6.76;61.22;101568.31;5010806;28;20030;-78
2021/04/23 06:57:22;;;;;;;17.52;7.68;;;;;;;6.83;60.57;101574.59;5010368;28;20509;-78
2021/04/23 06:59:48;;;;;;;16.73;6.40;;;;;;;6.88;60.53;101579.09;5010541;28;20485;-78
2021/04/23 07:02:13;;;;;;;13.07;6.57;;;;;;;7.03;60.25;101565.47;5021790;28;20121;-78
2021/04/23 07:04:38;;;;;;;17.70;7.10;;;;;;;7.08;59.79;101565.59;5022591;28;20125;-78
2021/04/23 07:07:04;;;;;;;17.92;7.20;;;;;;;7.38;58.82;101581.19;5007800;28;20038;-78
2021/04/23 07:09:29;;;;;;;16.52;6.68;;;;;;;7.50;59.55;101573.63;5023135;28;20183;-78
2021/04/23 07:11:56;;;;;;;12.27;6.68;;;;;;;7.55;58.92;101564.09;4991799;28;20034;-78
2021/04/23 07:14:21;;;;;;;13.60;6.60;;;;;;;7.65;58.70;101570.41;5010632;28;20508;-78
2021/04/23 07:16:46;;;;;;;11.38;6.82;;;;;;;7.60;57.66;101565.09;5007595;28;20054;-78
2021/04/23 07:19:11;;;;;;;16.95;7.38;;;;;;;7.43;58.53;101566.44;5012565;28;20042;-78
2021/04/23 07:21:37;;;;;;;15.15;7.03;;;;;;;7.38;58.02;101566.31;5008527;28;20045;-78
2021/04/23 07:24:03;;;;;;;18.25;7.85;;;;;;;7.45;58.90;101577.88;5010115;28;20034;-78
2021/04/23 07:26:28;;;;;;;14.90;7.82;;;;;;;7.63;58.52;101572.16;5007702;28;20490;-77
2021/04/23 07:28:53;;;;;;;13.93;6.75;;;;;;;7.63;57.96;101583.53;5011662;28;20072;-78
2021/04/23 07:31:19;;;;;;;14.98;7.55;;;;;;;7.61;57.89;101577.38;5009924;28;20030;-78
2021/04/23 07:33:44;;;;;;;13.95;6.57;;;;;;;7.68;57.79;101581.03;5009172;28;20033;-77
2021/04/23 07:36:09;;;;;;;15.88;7.25;;;;;;;7.70;57.86;101579.28;5010563;28;20060;-78
2021/04/23 07:38:35;;;;;;;16.08;7.05;;;;;;;7.68;57.54;101581.03;5008945;28;20040;-78
2021/04/23 07:41:00;;;;;;;14.90;7.30;;;;;;;7.78;57.47;101583.00;5010425;28;20030;-77
2021/04/23 07:43:26;;;;;;;16.50;7.55;;;;;;;7.81;56.47;101572.56;5009490;28;20042;-78
2021/04/23 07:45:52;;;;;;;13.77;6.70;;;;;;;7.73;56.24;101584.66;5010687;28;20045;-78
2021/04/23 07:48:18;;;;;;;11.93;6.55;;;;;;;7.68;55.96;101583.66;5007353;28;20030;-77
2021/04/23 07:50:44;;;;;;;11.23;6.15;;;;;;;7.62;56.41;101599.25;5011882;28;20111;-78
2021/04/23 07:53:09;;;;;;;15.05;5.78;;;;;;;7.60;56.26;101593.09;5011022;28;20121;-76
2021/04/23 07:55:34;;;;;;;10.68;5.20;;;;;;;7.58;55.57;101603.56;5009958;28;20540;-78
2021/04/23 07:58:00;;;;;;;9.25;4.68;;;;;;;7.63;55.26;101598.44;5008509;28;20034;-78
2021/04/23 08:00:26;;;;;;;13.10;4.28;;;;;;;7.78;54.35;101593.53;5012425;28;20490;-77
2021/04/23 08:02:53;;;;;;;16.23;4.47;;;;;;;7.99;53.14;101594.81;5008607;28;20540;-77
2021/04/23 08:05:19;;;;;;;12.40;4.55;;;;;;;8.08;52.37;101590.66;5006838;28;20030;-78
2021/04/23 08:07:45;;;;;;;11.20;5.93;;;;;;;8.23;53.47;101574.31;5007058;28;20094;-78
2021/04/23 08:10:14;;;;;;;10.95;4.93;;;;;;;8.35;53.31;101582.41;5023206;28;20058;-78
2021/04/23 08:12:39;;;;;;;12.55;4.78;;;;;;;8.31;51.67;101585.88;5006930;28;20093;-76
2021/04/23 08:15:06;;;;;;;8.90;4.20;;;;;;;8.38;51.53;101588.59;5006156;28;20132;-78
2021/04/23 08:17:32;;;;;;;12.65;5.10;;;;;;;8.37;50.35;101602.63;5005242;28;20042;-77
2021/04/23 08:19:57;;;;;;;10.80;4.30;;;;;;;8.32;50.11;101570.97;5023598;28;20037;-77
2021/04/23 08:22:22;;;;;;;10.85;4.03;;;;;;;8.42;50.71;101577.34;5003453;28;20124;-77
2021/04/23 08:24:47;;;;;;;11.55;5.45;;;;;;;8.58;50.54;101579.41;5008480;28;20441;-77
2021/04/23 08:27:13;;;;;;;10.52;4.70;;;;;;;8.62;49.49;101583.88;5000737;28;20680;-78
2021/04/23 08:29:39;;;;;;;8.82;3.97;;;;;;;8.54;49.30;101590.72;5005268;28;20053;-77
2021/04/23 08:32:04;;;;;;;9.23;4.30;;;;;;;8.37;49.83;101586.84;5007148;28;20041;-77
2021/04/23 08:34:30;;;;;;;8.88;3.15;;;;;;;8.26;49.29;101603.28;5005417;28;20092;-77
2021/04/23 08:36:55;;;;;;;8.10;4.13;;;;;;;8.11;49.97;101600.34;5006363;28;20057;-77
2021/04/23 08:39:21;;;;;;;15.25;5.75;;;;;;;8.09;51.98;101589.78;5007823;28;20033;-78
2021/04/23 08:41:46;;;;;;;12.93;4.57;;;;;;;8.07;51.08;101601.16;5007792;28;20041;-78
2021/04/23 08:44:12;;;;;;;12.07;4.53;;;;;;;7.92;51.87;101613.97;5006869;28;20045;-77
2021/04/23 08:46:37;;;;;;;14.15;4.57;;;;;;;7.94;52.20;101612.22;4992820;28;20034;-78
2021/04/23 08:49:05;;;;;;;10.18;4.72;;;;;;;7.87;52.95;101617.38;5024029;28;20125;-78
2021/04/23 08:51:32;;;;;;;13.32;4.65;;;;;;;7.95;52.42;101617.53;5012622;28;20034;-78
2021/04/23 08:53:57;;;;;;;12.55;4.65;;;;;;;8.02;53.12;101618.56;5009228;28;20545;-78
2021/04/23 08:56:24;;;;;;;13.75;4.57;;;;;;;7.93;53.07;101600.84;5010378;28;20034;-78
2021/04/23 08:58:50;;;;;;;9.82;5.30;;;;;;;7.96;53.37;101605.28;5012924;28;20045;-78
2021/04/23 09:01:16;;;;;;;10.00;4.53;;;;;;;8.13;52.85;101599.53;5010183;28;20034;-78
2021/04/23 09:03:41;;;;;;;10.93;5.15;;;;;;;8.33;52.22;101593.78;5012591;28;20446;-78
2021/04/23 09:06:16;;;;;;;16.23;4.47;;;;;;;8.41;51.83;101609.75;5009231;28;20057;-78
2021/04/23 09:08:50;;;;;;;12.40;4.82;;;;;;;8.20;51.04;101631.19;4995797;28;20040;-78
2021/04/23 09:11:17;;;;;;;14.05;4.72;;;;;;;8.07;51.05;101638.84;5014070;28;20034;-78
2021/04/23 09:13:57;;;;;;;9.93;4.25;;;;;;;7.91;52.00;101618.31;5015164;28;20029;-77
2021/04/23 09:16:26;;;;;;;10.00;4.20;;;;;;;7.90;51.80;101612.16;5010262;28;20037;-77
2021/04/23 09:18:52;;;;;;;13.35;4.32;;;;;;;7.96;52.64;101619.28;5008599;28;20088;-78
2021/04/23 09:21:18;;;;;;;11.98;4.35;;;;;;;8.15;52.82;101620.59;5012798;28;20026;-76
2021/04/23 09:23:53;;;;;;;15.95;5.38;;;;;;;8.40;51.56;101616.75;5015744;28;20492;-78
2021/04/23 09:26:39;;;;;;;12.10;4.43;;;;;;;8.57;51.60;101617.09;5013696;28;20097;-78
2021/04/23 09:29:20;;;;;;;12.13;4.47;;;;;;;8.69;50.26;101635.75;5009914;28;20053;-78
2021/04/23 09:31:46;;;;;;;9.82;4.90;;;;;;;8.73;49.69;101640.22;5008624;28;20467;-78
2021/04/23 09:34:11;;;;;;;10.65;4.10;;;;;;;8.76;49.62;101624.47;5011952;28;20164;-78
2021/04/23 09:36:43;;;;;;;13.77;4.40;;;;;;;8.80;49.71;101632.44;5011322;28;20039;-78
2021/04/23 09:39:15;;;;;;;11.57;4.57;;;;;;;8.74;49.59;101628.81;5013470;28;20042;-78
2021/04/23 09:41:54;;;;;;;9.82;4.10;;;;;;;8.60;50.87;101645.22;5014148;28;20041;-78
2021/04/23 09:44:36;;;;;;;11.23;4.20;;;;;;;8.73;50.14;101642.84;5010142;28;20038;-77
2021/04/23 09:47:11;;;;;;;12.00;5.87;;;;;;;8.55;50.45;101642.50;5009588;28;20038;-77
2021/04/23 09:49:37;;;;;;;10.93;4.47;;;;;;;8.65;50.98;101626.03;5009680;28;20049;-78
2021/04/23 09:52:05;;;;;;;12.00;4.65;;;;;;;8.82;50.62;101646.50;5009579;28;20667;-77
2021/04/23 09:54:31;;;;;;;9.13;4.18;;;;;;;9.09;50.26;101635.59;5009753;28;20506;-77
2021/04/23 09:56:57;;;;;;;9.73;4.00;;;;;;;9.16;50.24;101633.09;5014767;28;20098;-78
2021/04/23 09:59:29;;;;;;;10.95;4.45;;;;;;;9.27;50.15;101635.03;5013523;28;20030;-77
2021/04/23 10:01:58;;;;;;;8.55;3.92;;;;;;;9.16;49.30;101642.75;4988751;28;20173;-77
2021/04/23 10:04:25;;;;;;;11.27;4.53;;;;;;;9.03;50.11;101636.38;5006853;28;20402;-77
2021/04/23 10:07:09;;;;;;;9.40;4.28;;;;;;;8.89;49.57;101654.56;5014967;28;20038;-79
2021/04/23 10:09:42;;;;;;;11.27;4.85;;;;;;;8.86;49.82;101651.88;5009052;28;20037;-77
2021/04/23 10:12:08;;;;;;;11.20;4.90;;;;;;;9.10;49.79;101654.06;5017178;28;20041;-77
2021/04/23 10:14:33;;;;;;;9.80;4.80;;;;;;;9.23;49.26;101635.84;5016325;28;20481;-78
2021/04/23 10:16:59;;;;;;;11.98;4.20;;;;;;;9.36;48.20;101648.38;5010778;28;20069;-78
2021/04/23 10:19:27;;;;;;;10.52;5.18;;;;;;;9.51;48.54;101639.78;5010982;28;20042;-78
2021/04/23 10:21:54;;;;;;;9.90;5.03;;;;;;;9.64;47.82;101649.66;5010341;28;20486;-77
2021/04/23 10:24:21;;;;;;;14.77;4.88;;;;;;;9.78;47.71;101634.09;5008146;28;20038;-77
2021/04/23 10:26:46;;;;;;;10.00;4.72;;;;;;;9.86;46.63;101637.72;5013807;28;20084;-77
2021/04/23 10:29:13;;;;;;;10.23;4.65;;;;;;;9.85;46.81;101634.19;5009170;28;20030;-78
2021/04/23 10:31:38;;;;;;;10.20;5.18;;;;;;;9.95;47.72;101636.94;5031357;28;20402;-78
2021/04/23 10:34:05;;;;;;;10.38;4.60;;;;;;;10.21;47.36;101634.66;5018009;28;20038;-77
2021/04/23 10:36:33;;;;;;;13.02;5.15;;;;;;;10.15;46.74;101658.34;5012994;28;20038;-78
2021/04/23 10:39:00;;;;;;;9.70;4.50;;;;;;;9.94;47.08;101641.34;5027003;28;20042;-77
2021/04/23 10:41:33;;;;;;;14.13;4.57;;;;;;;10.10;46.32;101653.00;5017609;28;20089;-77
2021/04/23 10:43:59;;;;;;;14.55;4.88;;;;;;;10.13;46.38;101662.69;5012014;28;20057;-78
2021/04/23 10:46:26;;;;;;;11.95;4.38;;;;;;;10.35;46.73;101638.41;5018008;28;20034;-78
2021/04/23 10:49:02;;;;;;;12.25;4.72;;;;;;;10.80;44.72;101639.81;5009965;28;20051;-78
2021/04/23 10:51:28;;;;;;;10.18;4.32;;;;;;;10.70;44.66;101651.13;5023982;28;20049;-77
2021/04/23 10:54:04;;;;;;;11.10;4.68;;;;;;;10.75;45.23;101641.50;5013211;28;20042;-78
2021/04/23 10:56:35;;;;;;;13.40;4.35;;;;;;;11.24;43.58;101634.06;5012097;28;20483;-78
2021/04/23 10:59:29;;;;;;;8.57;4.18;;;;;;;10.92;43.11;101639.91;5012320;28;20053;-77
2021/04/23 11:02:13;;;;;;;8.68;4.65;;;;;;;10.81;43.12;101636.28;5010484;28;20050;-79
2021/04/23 11:04:58;;;;;;;9.77;3.80;;;;;;;10.66;43.44;101644.03;5013847;28;20030;-77
2021/04/23 11:07:24;;;;;;;8.63;4.20;;;;;;;10.88;43.67;101661.03;5011962;28;20057;-77
2021/04/23 11:09:57;;;;;;;12.60;4.40;;;;;;;10.96;43.95;101643.50;5009464;28;20104;-78
2021/04/23 11:12:25;;;;;;;12.27;4.32;;;;;;;10.86;45.36;101636.34;5007551;28;20048;-78
2021/04/23 11:14:51;;;;;;;8.77;3.70;;;;;;;10.86;43.22;101638.97;5009796;28;20034;-77
2021/04/23 11:17:16;;;;;;;10.13;3.90;;;;;;;11.31;42.61;101630.59;5013847;28;20084;-78
2021/04/23 11:19:42;;;;;;;7.10;2.92;;;;;;;11.28;41.43;101627.03;5007930;28;20036;-78
2021/04/23 11:22:10;;;;;;;12.77;3.72;;;;;;;11.24;41.58;101647.28;5008211;28;20034;-78
2021/04/23 11:24:36;;;;;;;9.95;3.63;;;;;;;11.44;42.04;101642.16;5017340;28;20512;-78
2021/04/23 11:27:09;;;;;;;6.50;3.38;;;;;;;11.61;40.15;101644.94;5010328;28;20035;-78